Dades meteomassalio
Diari Summary for Setembre 14, 2017 Units:  Metric    English   Both
« Previous Day
Next Day »
Diari Semanal Mensual Anual Personalitzat
  Maxima: Minima: Mijana:
Temperatura: 26.7 °C 10.6 °C 18.3 °C
Rosada: 16.7 °C 6.2 °C 11.2 °C
Humitat: 88 % 43 % 66 %
Velocitat del vent: 49.9 km/h 0.0 km/h 16.9 km/h
Racha vent: 49.9 km/h - -
Vent:- - SW
Pressio: 1020.9 hPa 1017.8 hPa -
Pluja: 0.0 mm    
Historical Graphs
 
 
Tabular Data for Setembre 14, 2017
Time Temperature Dew Point Pressure Wind Wind Speed Wind Gust Humidity Rainfall Rate (Hourly) solar Conditions
00:00 15.6 °C 10.5 °C 1019.9 hPa Calm     72 % 0.0 mm 0.0 W/m2 CLR
00:05 15.6 °C 10.7 °C 1019.5 hPa Calm     73 % 0.0 mm 0.0 W/m2 CLR
00:10 16.1 °C 11.3 °C 1019.5 hPa Calm     73 % 0.0 mm 0.0 W/m2 CLR
00:15 15.6 °C 10.9 °C 1019.5 hPa Calm     74 % 0.0 mm 0.0 W/m2 CLR
00:20 15.6 °C 10.9 °C 1019.5 hPa Calm     74 % 0.0 mm 0.0 W/m2 CLR
00:25 15.6 °C 10.9 °C 1019.5 hPa Calm     74 % 0.0 mm 0.0 W/m2 CLR
00:30 15.6 °C 11.2 °C 1019.5 hPa Calm     75 % 0.0 mm 0.0 W/m2 CLR
00:35 15.0 °C 10.6 °C 1019.5 hPa Calm     75 % 0.0 mm 0.0 W/m2 CLR
00:40 15.0 °C 10.6 °C 1019.5 hPa Calm     75 % 0.0 mm 0.0 W/m2 CLR
00:45 15.0 °C 10.6 °C 1019.5 hPa Calm     75 % 0.0 mm 0.0 W/m2 CLR
00:50 15.0 °C 10.8 °C 1019.5 hPa Calm     76 % 0.0 mm 0.0 W/m2 CLR
00:51 15.0 °C 10.8 °C 1019.5 hPa Calm     76 % 0.0 mm 0.0 W/m2 CLR
00:56 15.0 °C 10.6 °C 1019.5 hPa Calm     75 % 0.0 mm 0.0 W/m2 CLR
01:01 15.0 °C 10.6 °C 1019.2 hPa Calm     75 % 0.0 mm 0.0 W/m2 CLR
01:06 15.0 °C 10.6 °C 1019.2 hPa Calm     75 % 0.0 mm 0.0 W/m2 CLR
01:11 15.0 °C 11.0 °C 1019.2 hPa Calm     77 % 0.0 mm 0.0 W/m2 CLR
01:16 15.0 °C 11.2 °C 1019.2 hPa Calm     78 % 0.0 mm 0.0 W/m2 CLR
01:21 15.0 °C 10.6 °C 1019.2 hPa Calm     75 % 0.0 mm 0.0 W/m2 CLR
01:26 14.4 °C 10.3 °C 1019.2 hPa Calm     76 % 0.0 mm 0.0 W/m2 CLR
01:31 15.0 °C 11.0 °C 1019.2 hPa Calm     77 % 0.0 mm 0.0 W/m2 CLR
01:36 15.0 °C 11.0 °C 1019.2 hPa Calm     77 % 0.0 mm 0.0 W/m2 CLR
01:41 14.4 °C 10.4 °C 1019.2 hPa Calm     77 % 0.0 mm 0.0 W/m2 CLR
01:46 14.4 °C 10.7 °C 1019.2 hPa Calm     78 % 0.0 mm 0.0 W/m2 CLR
01:51 14.4 °C 10.4 °C 1019.2 hPa Calm     77 % 0.0 mm 0.0 W/m2 CLR
01:56 13.9 °C 9.9 °C 1018.8 hPa Calm     77 % 0.0 mm 0.0 W/m2 CLR
02:01 13.9 °C 10.1 °C 1018.8 hPa Calm     78 % 0.0 mm 0.0 W/m2 CLR
02:06 13.9 °C 10.1 °C 1018.8 hPa Calm     78 % 0.0 mm 0.0 W/m2 CLR
02:11 13.9 °C 10.3 °C 1018.8 hPa Calm     79 % 0.0 mm 0.0 W/m2 CLR
02:16 13.9 °C 10.3 °C 1018.8 hPa Calm     79 % 0.0 mm 0.0 W/m2 CLR
02:21 13.3 °C 9.8 °C 1018.8 hPa Calm     79 % 0.0 mm 0.0 W/m2 CLR
02:26 13.3 °C 9.8 °C 1018.8 hPa Calm     79 % 0.0 mm 0.0 W/m2 CLR
02:31 13.3 °C 9.6 °C 1018.8 hPa Calm     78 % 0.0 mm 0.0 W/m2 CLR
02:36 13.3 °C 9.6 °C 1018.8 hPa Calm     78 % 0.0 mm 0.0 W/m2 CLR
02:41 13.9 °C 10.1 °C 1018.8 hPa Calm     78 % 0.0 mm 0.0 W/m2 CLR
02:46 13.9 °C 10.1 °C 1018.8 hPa Calm     78 % 0.0 mm 0.0 W/m2 CLR
02:51 13.9 °C 10.3 °C 1018.8 hPa Calm     79 % 0.0 mm 0.0 W/m2 CLR
02:56 13.9 °C 10.3 °C 1018.8 hPa Calm     79 % 0.0 mm 0.0 W/m2 CLR
03:01 13.9 °C 10.5 °C 1018.8 hPa Calm     80 % 0.0 mm 0.0 W/m2 CLR
03:06 13.9 °C 10.7 °C 1018.5 hPa Calm     81 % 0.0 mm 0.0 W/m2 CLR
03:11 13.9 °C 10.7 °C 1018.5 hPa Calm     81 % 0.0 mm 0.0 W/m2 CLR
03:16 13.9 °C 10.9 °C 1018.5 hPa Calm     82 % 0.0 mm 0.0 W/m2 CLR
03:21 13.9 °C 11.1 °C 1018.5 hPa Calm     83 % 0.0 mm 0.0 W/m2 CLR
03:26 13.9 °C 11.1 °C 1018.5 hPa Calm     83 % 0.0 mm 0.0 W/m2 CLR
03:31 13.9 °C 10.9 °C 1018.5 hPa Calm     82 % 0.0 mm 0.0 W/m2 CLR
03:36 13.3 °C 10.3 °C 1018.5 hPa Calm     82 % 0.0 mm 0.0 W/m2 CLR
03:41 13.9 °C 10.9 °C 1018.5 hPa Calm     82 % 0.0 mm 0.0 W/m2 CLR
03:46 13.3 °C 10.5 °C 1018.5 hPa Calm     83 % 0.0 mm 0.0 W/m2 CLR
03:52 13.3 °C 10.5 °C 1018.5 hPa Calm     83 % 0.0 mm 0.0 W/m2 CLR
03:57 13.3 °C 10.5 °C 1018.5 hPa Calm     83 % 0.0 mm 0.0 W/m2 CLR
04:02 13.3 °C 10.5 °C 1018.2 hPa Calm     83 % 0.0 mm 0.0 W/m2 CLR
04:07 12.8 °C 10.2 °C 1018.2 hPa Calm     84 % 0.0 mm 0.0 W/m2 CLR
04:12 12.8 °C 10.2 °C 1018.2 hPa Calm     84 % 0.0 mm 0.0 W/m2 CLR
04:17 12.8 °C 10.3 °C 1018.2 hPa Calm     85 % 0.0 mm 0.0 W/m2 CLR
04:22 12.8 °C 10.3 °C 1018.2 hPa Calm     85 % 0.0 mm 0.0 W/m2 CLR
04:27 12.8 °C 10.5 °C 1018.2 hPa Calm     86 % 0.0 mm 0.0 W/m2 CLR
04:32 12.8 °C 10.3 °C 1018.2 hPa Calm     85 % 0.0 mm 0.0 W/m2 CLR
04:37 12.2 °C 9.8 °C 1017.8 hPa Calm     85 % 0.0 mm 0.0 W/m2 CLR
04:42 12.2 °C 9.9 °C 1017.8 hPa Calm     86 % 0.0 mm 0.0 W/m2 CLR
04:47 12.2 °C 9.9 °C 1017.8 hPa Calm     86 % 0.0 mm 0.0 W/m2 CLR
04:52 12.2 °C 9.9 °C 1017.8 hPa Calm     86 % 0.0 mm 0.0 W/m2 CLR
04:57 12.2 °C 9.8 °C 1017.8 hPa Calm     85 % 0.0 mm 0.0 W/m2 CLR
05:02 12.2 °C 9.9 °C 1017.8 hPa Calm     86 % 0.0 mm 0.0 W/m2 CLR
05:07 11.7 °C 9.4 °C 1018.2 hPa Calm     86 % 0.0 mm 0.0 W/m2 CLR
05:12 11.7 °C 9.4 °C 1017.8 hPa Calm     86 % 0.0 mm 0.0 W/m2 CLR
05:17 11.7 °C 9.4 °C 1017.8 hPa Calm     86 % 0.0 mm 0.0 W/m2 CLR
05:19 11.7 °C 9.4 °C 1017.8 hPa Calm     86 % 0.0 mm 0.0 W/m2 CLR
05:20 11.7 °C 9.4 °C 1017.8 hPa Calm     86 % 0.0 mm 0.0 W/m2 CLR
05:22 11.7 °C 9.4 °C 1017.8 hPa Calm     86 % 0.0 mm 0.0 W/m2 CLR
05:23 11.7 °C 9.4 °C 1017.8 hPa Calm     86 % 0.0 mm 0.0 W/m2 CLR
05:25 11.7 °C 9.4 °C 1017.8 hPa Calm     86 % 0.0 mm 0.0 W/m2 CLR
05:27 11.7 °C 9.4 °C 1017.8 hPa Calm     86 % 0.0 mm 0.0 W/m2 CLR
05:29 11.7 °C 9.4 °C 1017.8 hPa Calm     86 % 0.0 mm 0.0 W/m2 CLR
05:32 11.7 °C 9.4 °C 1017.8 hPa Calm     86 % 0.0 mm 0.0 W/m2 CLR
05:33 11.7 °C 9.4 °C 1017.8 hPa Calm     86 % 0.0 mm 0.0 W/m2 CLR
05:37 11.7 °C 9.6 °C 1017.8 hPa Calm     87 % 0.0 mm 0.0 W/m2 CLR
05:42 11.7 °C 9.6 °C 1017.8 hPa Calm     87 % 0.0 mm 0.0 W/m2 CLR
05:47 11.7 °C 9.6 °C 1017.8 hPa Calm     87 % 0.0 mm 0.0 W/m2 CLR
05:52 11.7 °C 9.6 °C 1017.8 hPa Calm     87 % 0.0 mm 0.0 W/m2 CLR
05:57 11.7 °C 9.7 °C 1017.8 hPa Calm     88 % 0.0 mm 0.0 W/m2 CLR
06:02 11.7 °C 9.7 °C 1017.8 hPa Calm     88 % 0.0 mm 0.0 W/m2 CLR
06:07 11.7 °C 9.7 °C 1017.8 hPa Calm     88 % 0.0 mm 0.0 W/m2 CLR
06:12 11.1 °C 9.2 °C 1017.8 hPa Calm     88 % 0.0 mm 0.0 W/m2 CLR
06:17 11.1 °C 9.2 °C 1017.8 hPa Calm     88 % 0.0 mm 0.0 W/m2 CLR
06:22 11.1 °C 9.2 °C 1017.8 hPa Calm     88 % 0.0 mm 0.0 W/m2 CLR
06:27 11.1 °C 9.2 °C 1017.8 hPa Calm     88 % 0.0 mm 0.0 W/m2 CLR
06:32 11.1 °C 9.2 °C 1017.8 hPa Calm     88 % 0.0 mm 0.0 W/m2 CLR
06:37 11.1 °C 9.2 °C 1018.2 hPa Calm     88 % 0.0 mm 0.0 W/m2 CLR
06:43 11.1 °C 9.2 °C 1018.2 hPa Calm     88 % 0.0 mm 0.0 W/m2 CLR
06:48 11.1 °C 9.2 °C 1018.2 hPa Calm     88 % 0.0 mm 0.0 W/m2 CLR
06:53 11.1 °C 9.1 °C 1018.2 hPa Calm     87 % 0.0 mm 0.0 W/m2 CLR
06:58 11.1 °C 9.2 °C 1018.2 hPa Calm     88 % 0.0 mm 0.0 W/m2 CLR
07:03 11.1 °C 9.2 °C 1018.2 hPa Calm     88 % 0.0 mm 0.0 W/m2 CLR
07:08 11.1 °C 9.2 °C 1018.2 hPa Calm     88 % 0.0 mm 0.0 W/m2 CLR
07:13 11.1 °C 9.2 °C 1018.2 hPa Calm     88 % 0.0 mm 0.0 W/m2 CLR
07:18 11.1 °C 9.2 °C 1018.2 hPa Calm     88 % 0.0 mm 0.0 W/m2 CLR
07:23 10.6 °C 8.5 °C 1018.2 hPa Calm     87 % 0.0 mm 0.0 W/m2 CLR
07:28 10.6 °C 8.7 °C 1018.2 hPa Calm     88 % 0.0 mm 0.0 W/m2 CLR
07:33 10.6 °C 8.7 °C 1018.2 hPa Calm     88 % 0.0 mm 0.0 W/m2 OVC
07:38 10.6 °C 8.5 °C 1018.5 hPa Calm     87 % 0.0 mm 0.0 W/m2 OVC
07:43 11.1 °C 9.1 °C 1018.2 hPa Calm     87 % 0.0 mm 5.0 W/m2 OVC
07:48 11.1 °C 9.1 °C 1018.5 hPa Calm     87 % 0.0 mm 9.0 W/m2 BKN
07:53 11.1 °C 9.1 °C 1018.5 hPa Calm     87 % 0.0 mm 12.0 W/m2 BKN
07:58 11.1 °C 9.2 °C 1018.5 hPa Calm     88 % 0.0 mm 16.0 W/m2 BKN
08:03 11.1 °C 9.2 °C 1018.2 hPa Calm     88 % 0.0 mm 18.0 W/m2 BKN
08:08 11.1 °C 9.2 °C 1018.5 hPa Calm     88 % 0.0 mm 25.0 W/m2 BKN
08:13 11.1 °C 9.2 °C 1018.5 hPa Calm     88 % 0.0 mm 32.0 W/m2 BKN
08:18 11.1 °C 9.2 °C 1018.5 hPa Calm     88 % 0.0 mm 42.0 W/m2 BKN
08:23 11.1 °C 9.1 °C 1018.5 hPa Calm     87 % 0.0 mm 53.0 W/m2 SCT
08:28 11.1 °C 8.8 °C 1018.5 hPa Calm     86 % 0.0 mm 49.0 W/m2 SCT
08:33 11.1 °C 8.8 °C 1018.5 hPa Calm     86 % 0.0 mm 30.0 W/m2 BKN
08:38 11.7 °C 9.4 °C 1018.5 hPa Calm     86 % 0.0 mm 32.0 W/m2 BKN
08:43 11.7 °C 9.2 °C 1018.5 hPa Calm     85 % 0.0 mm 70.0 W/m2 BKN
08:48 12.2 °C 9.6 °C 1018.5 hPa Calm     84 % 0.0 mm 121.0 W/m2 FEW
08:53 12.8 °C 10.2 °C 1018.5 hPa Calm     84 % 0.0 mm 144.0 W/m2 CLR
08:58 12.8 °C 9.8 °C 1018.5 hPa Calm     82 % 0.0 mm 162.0 W/m2 CLR
09:03 13.3 °C 10.3 °C 1018.5 hPa Calm     82 % 0.0 mm 181.0 W/m2 CLR
09:08 13.3 °C 10.2 °C 1018.5 hPa Calm     81 % 0.0 mm 199.0 W/m2 CLR
09:13 13.9 °C 11.2 °C 1018.5 hPa SSE 11.1 km/h 11.1 km/h 84 % 0.0 mm 220.0 W/m2 CLR
09:18 13.9 °C 10.9 °C 1018.5 hPa Calm     82 % 0.0 mm 236.0 W/m2 CLR
09:23 14.4 °C 11.6 °C 1018.5 hPa SSW 9.3 km/h 9.3 km/h 83 % 0.0 mm 250.0 W/m2 CLR
09:28 15.6 °C 12.7 °C 1018.5 hPa South 14.8 km/h 14.8 km/h 83 % 0.0 mm 265.0 W/m2 CLR
09:33 16.1 °C 13.1 °C 1018.5 hPa South 14.8 km/h 14.8 km/h 82 % 0.0 mm 279.0 W/m2 CLR
09:38 16.7 °C 13.4 °C 1018.5 hPa South 12.9 km/h 12.9 km/h 81 % 0.0 mm 297.0 W/m2 CLR
09:43 17.2 °C 13.9 °C 1018.5 hPa WSW 14.5 km/h 14.5 km/h 81 % 0.0 mm 313.0 W/m2 CLR
09:48 18.3 °C 14.8 °C 1018.8 hPa WSW 9.3 km/h 9.3 km/h 80 % 0.0 mm 327.0 W/m2 CLR
09:53 19.4 °C 15.7 °C 1018.8 hPa SW 11.3 km/h 11.3 km/h 79 % 0.0 mm 341.0 W/m2 CLR
09:58 20.0 °C 16.2 °C 1018.8 hPa SW 14.8 km/h 14.8 km/h 79 % 0.0 mm 359.0 W/m2 CLR
10:03 20.0 °C 16.1 °C 1018.8 hPa WSW 13.0 km/h 13.0 km/h 78 % 0.0 mm 373.0 W/m2 CLR
10:08 20.6 °C 16.4 °C 1018.8 hPa WSW 18.5 km/h 18.5 km/h 77 % 0.0 mm 387.0 W/m2 CLR
10:13 20.6 °C 16.2 °C 1019.2 hPa SW 18.5 km/h 18.5 km/h 76 % 0.0 mm 403.0 W/m2 CLR
10:18 20.6 °C 16.2 °C 1019.2 hPa SW 20.4 km/h 20.4 km/h 76 % 0.0 mm 418.0 W/m2 CLR
10:23 20.6 °C 16.2 °C 1019.2 hPa WSW 19.3 km/h 19.3 km/h 76 % 0.0 mm 429.0 W/m2 CLR
10:28 21.1 °C 16.5 °C 1019.5 hPa SW 20.4 km/h 20.4 km/h 75 % 0.0 mm 443.0 W/m2 CLR
10:33 21.1 °C 16.7 °C 1019.5 hPa WSW 14.8 km/h 14.8 km/h 76 % 0.0 mm 457.0 W/m2 CLR
10:38 21.1 °C 16.1 °C 1019.5 hPa WSW 27.8 km/h 27.8 km/h 73 % 0.0 mm 471.0 W/m2 CLR
10:53 20.6 °C 15.8 °C 1019.9 hPa WSW 16.7 km/h 16.7 km/h 74 % 0.0 mm 510.0 W/m2 CLR
10:58 20.6 °C 15.8 °C 1019.9 hPa WSW 7.4 km/h 7.4 km/h 74 % 0.0 mm 526.0 W/m2 CLR
11:03 21.1 °C 15.9 °C 1019.9 hPa WSW 25.9 km/h 25.9 km/h 72 % 0.0 mm 540.0 W/m2 CLR
11:08 21.1 °C 16.1 °C 1019.9 hPa SW 12.9 km/h 12.9 km/h 73 % 0.0 mm 541.0 W/m2 CLR
11:13 21.7 °C 15.9 °C 1019.9 hPa SW 27.8 km/h 27.8 km/h 70 % 0.0 mm 563.0 W/m2 CLR
11:18 21.7 °C 15.7 °C 1019.9 hPa WSW 18.5 km/h 18.5 km/h 69 % 0.0 mm 570.0 W/m2 CLR
11:23 22.2 °C 16.3 °C 1019.9 hPa WSW 9.3 km/h 9.3 km/h 69 % 0.0 mm 585.0 W/m2 CLR
11:28 22.2 °C 15.8 °C 1019.9 hPa SW 25.9 km/h 25.9 km/h 67 % 0.0 mm 598.0 W/m2 CLR
11:33 22.8 °C 16.1 °C 1019.9 hPa SW 25.9 km/h 25.9 km/h 66 % 0.0 mm 612.0 W/m2 CLR
11:38 22.8 °C 15.8 °C 1019.9 hPa WSW 13.0 km/h 13.0 km/h 65 % 0.0 mm 619.0 W/m2 CLR
11:43 23.3 °C 15.9 °C 1019.9 hPa SW 19.3 km/h 19.3 km/h 63 % 0.0 mm 633.0 W/m2 CLR
11:48 23.3 °C 15.9 °C 1019.9 hPa SW 18.5 km/h 18.5 km/h 63 % 0.0 mm 642.0 W/m2 CLR
11:53 23.3 °C 15.7 °C 1019.9 hPa SW 31.5 km/h 31.5 km/h 62 % 0.0 mm 654.0 W/m2 CLR
11:58 23.9 °C 16.2 °C 1019.9 hPa WSW 29.6 km/h 29.6 km/h 62 % 0.0 mm 663.0 W/m2 CLR
12:03 23.9 °C 15.9 °C 1019.5 hPa WSW 20.4 km/h 20.4 km/h 61 % 0.0 mm 671.0 W/m2 CLR
12:08 23.9 °C 15.7 °C 1019.5 hPa SW 25.9 km/h 25.9 km/h 60 % 0.0 mm 677.0 W/m2 CLR
12:13 24.4 °C 15.7 °C 1019.9 hPa WSW 33.3 km/h 33.3 km/h 58 % 0.0 mm 679.0 W/m2 CLR
12:18 24.4 °C 15.4 °C 1019.9 hPa SW 35.2 km/h 35.2 km/h 57 % 0.0 mm 696.0 W/m2 CLR
12:23 24.4 °C 15.4 °C 1019.5 hPa SW 27.8 km/h 27.8 km/h 57 % 0.0 mm 705.0 W/m2 CLR
12:28 25.0 °C 15.9 °C 1019.5 hPa WSW 20.4 km/h 20.4 km/h 57 % 0.0 mm 712.0 W/m2 CLR
12:33 25.0 °C 15.9 °C 1019.5 hPa SW 27.8 km/h 27.8 km/h 57 % 0.0 mm 714.0 W/m2 CLR
12:38 25.0 °C 15.6 °C 1019.5 hPa SSW 37.0 km/h 37.0 km/h 56 % 0.0 mm 722.0 W/m2 CLR
12:43 25.0 °C 15.1 °C 1019.5 hPa SSW 31.5 km/h 31.5 km/h 54 % 0.0 mm 733.0 W/m2 CLR
12:48 25.6 °C 15.6 °C 1019.5 hPa SSW 43.4 km/h 43.4 km/h 54 % 0.0 mm 728.0 W/m2 CLR
12:54 25.6 °C 15.6 °C 1019.5 hPa SW 46.3 km/h 46.3 km/h 54 % 0.0 mm 742.0 W/m2 CLR
12:59 25.6 °C 16.1 °C 1019.5 hPa SW 38.9 km/h 38.9 km/h 56 % 0.0 mm 744.0 W/m2 CLR
13:04 25.6 °C 16.1 °C 1019.5 hPa WSW 35.2 km/h 35.2 km/h 56 % 0.0 mm 751.0 W/m2 CLR
13:09 25.6 °C 15.6 °C 1019.5 hPa WSW 41.8 km/h 41.8 km/h 54 % 0.0 mm 759.0 W/m2 CLR
13:14 25.6 °C 15.6 °C 1019.2 hPa SSW 38.9 km/h 38.9 km/h 54 % 0.0 mm 765.0 W/m2 CLR
13:15 25.6 °C 15.6 °C 1019.2 hPa WSW 42.6 km/h 42.6 km/h 54 % 0.0 mm 765.0 W/m2 CLR
13:20 25.6 °C 15.3 °C 1019.2 hPa SW 38.9 km/h 38.9 km/h 53 % 0.0 mm 766.0 W/m2 CLR
13:25 25.6 °C 15.3 °C 1019.2 hPa West 38.6 km/h 38.6 km/h 53 % 0.0 mm 773.0 W/m2 CLR
13:26 25.6 °C 15.3 °C 1019.2 hPa SW 38.9 km/h 38.9 km/h 53 % 0.0 mm 775.0 W/m2 CLR
13:31 26.1 °C 15.8 °C 1019.2 hPa WSW 38.9 km/h 38.9 km/h 53 % 0.0 mm 779.0 W/m2 CLR
13:36 26.1 °C 15.8 °C 1019.2 hPa SW 33.3 km/h 33.3 km/h 53 % 0.0 mm 780.0 W/m2 CLR
13:41 25.6 °C 14.9 °C 1019.2 hPa West 42.6 km/h 42.6 km/h 52 % 0.0 mm 782.0 W/m2 CLR
13:46 26.1 °C 15.5 °C 1019.2 hPa SW 38.9 km/h 38.9 km/h 52 % 0.0 mm 788.0 W/m2 CLR
13:51 25.6 °C 14.7 °C 1019.5 hPa WSW 44.4 km/h 44.4 km/h 51 % 0.0 mm 796.0 W/m2 CLR
13:56 25.6 °C 14.7 °C 1019.2 hPa SW 40.7 km/h 40.7 km/h 51 % 0.0 mm 814.0 W/m2 CLR
14:02 26.1 °C 15.2 °C 1019.2 hPa West 29.6 km/h 29.6 km/h 51 % 0.0 mm 812.0 W/m2 CLR
14:07 25.6 °C 14.4 °C 1019.2 hPa West 32.2 km/h 32.2 km/h 50 % 0.0 mm 893.0 W/m2 CLR
14:12 25.0 °C 14.2 °C 1019.2 hPa WSW 29.6 km/h 29.6 km/h 51 % 0.0 mm 167.0 W/m2 CLR
14:17 25.0 °C 14.2 °C 1019.2 hPa West 35.4 km/h 35.4 km/h 51 % 0.0 mm 214.0 W/m2 CLR
14:22 26.1 °C 15.2 °C 1019.2 hPa WSW 31.5 km/h 31.5 km/h 51 % 0.0 mm 814.0 W/m2 CLR
14:27 26.7 °C 15.4 °C 1019.2 hPa SSW 31.5 km/h 31.5 km/h 50 % 0.0 mm 921.0 W/m2 CLR
14:32 26.1 °C 14.6 °C 1019.2 hPa SSW 31.5 km/h 31.5 km/h 49 % 0.0 mm 285.0 W/m2 CLR
14:37 26.7 °C 14.7 °C 1019.2 hPa West 42.6 km/h 42.6 km/h 48 % 0.0 mm 793.0 W/m2 CLR
14:42 26.7 °C 15.1 °C 1018.8 hPa WSW 38.9 km/h 38.9 km/h 49 % 0.0 mm 779.0 W/m2 CLR
14:47 26.7 °C 15.4 °C 1018.8 hPa WSW 33.3 km/h 33.3 km/h 50 % 0.0 mm 803.0 W/m2 CLR
14:52 26.7 °C 15.1 °C 1018.8 hPa SW 33.3 km/h 33.3 km/h 49 % 0.0 mm 816.0 W/m2 CLR
14:57 26.7 °C 15.1 °C 1018.8 hPa WSW 29.6 km/h 29.6 km/h 49 % 0.0 mm 844.0 W/m2 CLR
15:02 26.1 °C 14.6 °C 1018.8 hPa SW 29.6 km/h 29.6 km/h 49 % 0.0 mm 802.0 W/m2 CLR
15:07 26.1 °C 14.2 °C 1018.8 hPa WSW 38.9 km/h 38.9 km/h 48 % 0.0 mm 749.0 W/m2 CLR
15:12 26.1 °C 13.9 °C 1018.8 hPa West 38.9 km/h 38.9 km/h 47 % 0.0 mm 756.0 W/m2 CLR
15:17 26.1 °C 14.6 °C 1018.5 hPa WSW 37.0 km/h 37.0 km/h 49 % 0.0 mm 729.0 W/m2 CLR
15:22 26.7 °C 14.4 °C 1018.8 hPa West 35.2 km/h 35.2 km/h 47 % 0.0 mm 722.0 W/m2 CLR
15:27 26.1 °C 13.6 °C 1018.8 hPa West 42.6 km/h 42.6 km/h 46 % 0.0 mm 717.0 W/m2 CLR
15:32 26.1 °C 13.6 °C 1018.5 hPa West 42.6 km/h 42.6 km/h 46 % 0.0 mm 708.0 W/m2 CLR
15:37 26.7 °C 13.7 °C 1018.5 hPa WSW 31.5 km/h 31.5 km/h 45 % 0.0 mm 700.0 W/m2 CLR
15:42 26.7 °C 14.1 °C 1018.5 hPa WSW 40.7 km/h 40.7 km/h 46 % 0.0 mm 693.0 W/m2 CLR
15:47 26.7 °C 13.7 °C 1018.5 hPa WSW 44.4 km/h 44.4 km/h 45 % 0.0 mm 684.0 W/m2 CLR
15:52 26.7 °C 13.7 °C 1018.5 hPa WSW 29.6 km/h 29.6 km/h 45 % 0.0 mm 677.0 W/m2 CLR
15:57 26.1 °C 12.9 °C 1018.5 hPa SW 48.3 km/h 48.3 km/h 44 % 0.0 mm 666.0 W/m2 CLR
16:02 26.1 °C 13.2 °C 1018.2 hPa WSW 30.6 km/h 30.6 km/h 45 % 0.0 mm 661.0 W/m2 CLR
16:07 26.1 °C 13.2 °C 1018.5 hPa SW 43.4 km/h 43.4 km/h 45 % 0.0 mm 650.0 W/m2 CLR
16:12 26.1 °C 12.9 °C 1018.2 hPa WSW 49.9 km/h 49.9 km/h 44 % 0.0 mm 638.0 W/m2 CLR
16:17 26.1 °C 12.9 °C 1018.2 hPa WSW 42.6 km/h 42.6 km/h 44 % 0.0 mm 628.0 W/m2 CLR
16:22 25.6 °C 12.4 °C 1018.5 hPa WSW 42.6 km/h 42.6 km/h 44 % 0.0 mm 615.0 W/m2 CLR
16:27 26.1 °C 12.9 °C 1018.5 hPa WSW 48.1 km/h 48.1 km/h 44 % 0.0 mm 603.0 W/m2 CLR
16:32 25.6 °C 12.4 °C 1018.5 hPa WSW 40.2 km/h 40.2 km/h 44 % 0.0 mm 589.0 W/m2 CLR
16:37 25.6 °C 12.4 °C 1018.5 hPa West 35.2 km/h 35.2 km/h 44 % 0.0 mm 578.0 W/m2 CLR
16:42 25.0 °C 11.9 °C 1018.5 hPa WSW 37.0 km/h 37.0 km/h 44 % 0.0 mm 564.0 W/m2 CLR
16:47 25.0 °C 11.9 °C 1018.5 hPa WSW 38.9 km/h 38.9 km/h 44 % 0.0 mm 555.0 W/m2 CLR
16:52 24.4 °C 11.4 °C 1018.2 hPa West 33.3 km/h 33.3 km/h 44 % 0.0 mm 543.0 W/m2 CLR
16:57 25.0 °C 11.9 °C 1018.2 hPa SW 38.9 km/h 38.9 km/h 44 % 0.0 mm 531.0 W/m2 CLR
17:02 25.0 °C 11.9 °C 1018.2 hPa WSW 31.5 km/h 31.5 km/h 44 % 0.0 mm 519.0 W/m2 CLR
17:07 25.0 °C 11.6 °C 1018.2 hPa WSW 42.6 km/h 42.6 km/h 43 % 0.0 mm 501.0 W/m2 CLR
17:12 25.0 °C 11.9 °C 1018.2 hPa West 33.3 km/h 33.3 km/h 44 % 0.0 mm 489.0 W/m2 CLR
17:18 25.0 °C 11.9 °C 1018.2 hPa SW 37.0 km/h 37.0 km/h 44 % 0.0 mm 476.0 W/m2 CLR
17:23 25.0 °C 11.9 °C 1018.2 hPa West 31.5 km/h 31.5 km/h 44 % 0.0 mm 459.0 W/m2 CLR
17:28 24.4 °C 11.4 °C 1018.2 hPa WSW 35.2 km/h 35.2 km/h 44 % 0.0 mm 445.0 W/m2 CLR
17:33 24.4 °C 11.4 °C 1018.2 hPa WSW 22.5 km/h 22.5 km/h 44 % 0.0 mm 432.0 W/m2 CLR
17:38 24.4 °C 11.7 °C 1018.2 hPa SW 35.2 km/h 35.2 km/h 45 % 0.0 mm 415.0 W/m2 CLR
17:43 24.4 °C 11.4 °C 1018.2 hPa West 37.0 km/h 37.0 km/h 44 % 0.0 mm 401.0 W/m2 CLR
17:48 23.9 °C 11.2 °C 1018.2 hPa West 37.0 km/h 37.0 km/h 45 % 0.0 mm 371.0 W/m2 CLR
17:53 23.9 °C 11.2 °C 1018.2 hPa SW 33.8 km/h 33.8 km/h 45 % 0.0 mm 241.0 W/m2 CLR
17:58 23.3 °C 11.1 °C 1018.2 hPa SW 40.2 km/h 40.2 km/h 46 % 0.0 mm 294.0 W/m2 CLR
18:03 23.3 °C 11.1 °C 1018.5 hPa WSW 35.2 km/h 35.2 km/h 46 % 0.0 mm 243.0 W/m2 CLR
18:08 22.8 °C 10.6 °C 1018.2 hPa WSW 33.3 km/h 33.3 km/h 46 % 0.0 mm 258.0 W/m2 CLR
18:13 23.3 °C 11.1 °C 1018.5 hPa WSW 32.2 km/h 32.5 km/h 46 % 0.0 mm 276.0 W/m2 CLR
18:18 23.3 °C 11.1 °C 1018.5 hPa SW 40.7 km/h 40.7 km/h 46 % 0.0 mm 279.0 W/m2 CLR
18:23 22.8 °C 10.9 °C 1018.5 hPa WSW 38.6 km/h 38.6 km/h 47 % 0.0 mm 292.0 W/m2 CLR
18:28 22.8 °C 10.9 °C 1018.5 hPa West 33.8 km/h 33.8 km/h 47 % 0.0 mm 260.0 W/m2 CLR
18:33 22.2 °C 10.4 °C 1018.5 hPa WSW 25.9 km/h 25.9 km/h 47 % 0.0 mm 264.0 W/m2 CLR
18:38 22.2 °C 10.4 °C 1018.5 hPa WSW 33.3 km/h 33.3 km/h 47 % 0.0 mm 234.0 W/m2 CLR
18:43 22.2 °C 10.4 °C 1018.5 hPa SW 33.3 km/h 33.3 km/h 47 % 0.0 mm 197.0 W/m2 CLR
18:48 21.7 °C 9.8 °C 1018.5 hPa West 27.8 km/h 27.8 km/h 47 % 0.0 mm 128.0 W/m2 CLR
18:53 21.7 °C 9.8 °C 1018.5 hPa WSW 31.5 km/h 31.5 km/h 47 % 0.0 mm 123.0 W/m2 CLR
18:58 21.7 °C 10.2 °C 1018.5 hPa WSW 35.2 km/h 35.2 km/h 48 % 0.0 mm 104.0 W/m2 CLR
19:03 21.7 °C 10.2 °C 1018.5 hPa SW 33.3 km/h 33.3 km/h 48 % 0.0 mm 65.0 W/m2 CLR
19:08 21.1 °C 10.0 °C 1018.5 hPa SW 31.5 km/h 31.5 km/h 49 % 0.0 mm 70.0 W/m2 FEW
19:13 21.1 °C 10.0 °C 1018.8 hPa SW 31.5 km/h 31.5 km/h 49 % 0.0 mm 67.0 W/m2 FEW
19:18 21.1 °C 10.0 °C 1018.8 hPa SW 16.7 km/h 16.7 km/h 49 % 0.0 mm 70.0 W/m2 FEW
19:23 20.6 °C 9.4 °C 1018.8 hPa WSW 22.2 km/h 22.2 km/h 49 % 0.0 mm 63.0 W/m2 SCT
19:28 20.6 °C 9.4 °C 1019.2 hPa SSW 9.3 km/h 9.3 km/h 49 % 0.0 mm 58.0 W/m2 SCT
19:33 20.6 °C 9.4 °C 1019.2 hPa South 16.7 km/h 16.7 km/h 49 % 0.0 mm 47.0 W/m2 SCT
19:38 20.6 °C 9.2 °C 1019.2 hPa SW 18.5 km/h 18.5 km/h 48 % 0.0 mm 40.0 W/m2 BKN
19:43 20.6 °C 9.2 °C 1019.2 hPa SW 27.8 km/h 27.8 km/h 48 % 0.0 mm 33.0 W/m2 BKN
19:48 20.0 °C 8.7 °C 1019.2 hPa SSW 25.9 km/h 25.9 km/h 48 % 0.0 mm 28.0 W/m2 BKN
19:53 20.0 °C 8.7 °C 1019.2 hPa SSW 20.4 km/h 20.4 km/h 48 % 0.0 mm 16.0 W/m2 BKN
19:58 20.0 °C 8.7 °C 1019.2 hPa SSW 22.2 km/h 22.2 km/h 48 % 0.0 mm 11.0 W/m2 BKN
20:03 20.0 °C 8.7 °C 1019.5 hPa SSW 24.1 km/h 24.1 km/h 48 % 0.0 mm 7.0 W/m2 BKN
20:08 20.0 °C 8.9 °C 1019.5 hPa SSW 18.5 km/h 18.5 km/h 49 % 0.0 mm 5.0 W/m2 OVC
20:13 19.4 °C 8.4 °C 1019.5 hPa SSW 19.3 km/h 19.3 km/h 49 % 0.0 mm 0.0 W/m2 OVC
20:18 19.4 °C 8.7 °C 1019.5 hPa SW 20.4 km/h 20.4 km/h 50 % 0.0 mm 5.0 W/m2 OVC
20:23 19.4 °C 8.7 °C 1019.5 hPa SSW 29.6 km/h 29.6 km/h 50 % 0.0 mm 0.0 W/m2 CLR
20:28 18.9 °C 8.2 °C 1019.5 hPa WSW 29.6 km/h 29.6 km/h 50 % 0.0 mm 0.0 W/m2 CLR
20:33 18.9 °C 8.5 °C 1019.9 hPa SW 22.2 km/h 22.2 km/h 51 % 0.0 mm 0.0 W/m2 CLR
20:38 18.9 °C 8.8 °C 1019.9 hPa WSW 27.8 km/h 27.8 km/h 52 % 0.0 mm 0.0 W/m2 CLR
20:43 18.9 °C 8.8 °C 1019.9 hPa WSW 20.4 km/h 20.4 km/h 52 % 0.0 mm 0.0 W/m2 CLR
20:48 18.9 °C 8.8 °C 1019.9 hPa SW 24.1 km/h 24.1 km/h 52 % 0.0 mm 0.0 W/m2 CLR
20:53 18.3 °C 8.6 °C 1019.9 hPa SSW 22.2 km/h 22.2 km/h 53 % 0.0 mm 0.0 W/m2 CLR
20:58 18.3 °C 8.6 °C 1019.9 hPa SW 22.2 km/h 22.2 km/h 53 % 0.0 mm 0.0 W/m2 CLR
21:03 18.3 °C 8.8 °C 1020.2 hPa SSW 31.5 km/h 31.5 km/h 54 % 0.0 mm 0.0 W/m2 CLR
21:08 18.3 °C 8.8 °C 1020.2 hPa SW 27.8 km/h 27.8 km/h 54 % 0.0 mm 0.0 W/m2 CLR
21:13 18.3 °C 8.8 °C 1020.2 hPa WSW 22.2 km/h 22.2 km/h 54 % 0.0 mm 0.0 W/m2 CLR
21:18 18.3 °C 9.1 °C 1020.2 hPa SW 22.2 km/h 22.2 km/h 55 % 0.0 mm 0.0 W/m2 CLR
21:23 18.3 °C 9.1 °C 1020.2 hPa SSW 27.8 km/h 27.8 km/h 55 % 0.0 mm 0.0 W/m2 CLR
21:28 17.8 °C 8.6 °C 1020.2 hPa SSW 29.6 km/h 29.6 km/h 55 % 0.0 mm 0.0 W/m2 CLR
21:33 17.8 °C 8.6 °C 1020.2 hPa WSW 29.0 km/h 29.0 km/h 55 % 0.0 mm 0.0 W/m2 CLR
21:38 17.8 °C 8.6 °C 1020.5 hPa SSW 29.0 km/h 29.0 km/h 55 % 0.0 mm 0.0 W/m2 CLR
21:43 17.8 °C 8.6 °C 1020.5 hPa SW 27.8 km/h 27.8 km/h 55 % 0.0 mm 0.0 W/m2 CLR
21:48 17.8 °C 8.6 °C 1020.5 hPa WSW 27.8 km/h 27.8 km/h 55 % 0.0 mm 0.0 W/m2 CLR
21:53 17.8 °C 8.6 °C 1020.5 hPa SW 27.4 km/h 27.4 km/h 55 % 0.0 mm 0.0 W/m2 CLR
21:58 17.8 °C 8.3 °C 1020.5 hPa SW 33.3 km/h 33.3 km/h 54 % 0.0 mm 0.0 W/m2 CLR
22:03 17.8 °C 8.1 °C 1020.5 hPa SSW 24.1 km/h 24.1 km/h 53 % 0.0 mm 0.0 W/m2 CLR
22:08 17.8 °C 8.1 °C 1020.5 hPa SSW 16.7 km/h 16.7 km/h 53 % 0.0 mm 0.0 W/m2 CLR
22:13 17.8 °C 7.8 °C 1020.5 hPa SW 25.9 km/h 25.9 km/h 52 % 0.0 mm 0.0 W/m2 CLR
22:18 17.2 °C 7.3 °C 1020.5 hPa SW 25.9 km/h 25.9 km/h 52 % 0.0 mm 0.0 W/m2 CLR
22:23 17.2 °C 7.3 °C 1020.5 hPa SW 27.8 km/h 27.8 km/h 52 % 0.0 mm 0.0 W/m2 CLR
22:28 17.2 °C 7.0 °C 1020.5 hPa SSW 29.6 km/h 29.6 km/h 51 % 0.0 mm 0.0 W/m2 CLR
22:33 17.2 °C 7.0 °C 1020.5 hPa SW 18.5 km/h 18.5 km/h 51 % 0.0 mm 0.0 W/m2 CLR
22:38 17.2 °C 7.0 °C 1020.5 hPa SSW 18.5 km/h 18.5 km/h 51 % 0.0 mm 0.0 W/m2 CLR
22:43 17.2 °C 7.0 °C 1020.5 hPa SSW 20.4 km/h 20.4 km/h 51 % 0.0 mm 0.0 W/m2 CLR
22:49 17.2 °C 7.0 °C 1020.9 hPa SSW 18.5 km/h 18.5 km/h 51 % 0.0 mm 0.0 W/m2 CLR
22:54 17.2 °C 7.0 °C 1020.9 hPa SSW 18.5 km/h 18.5 km/h 51 % 0.0 mm 0.0 W/m2 CLR
22:59 17.2 °C 7.0 °C 1020.9 hPa SSW 18.5 km/h 18.5 km/h 51 % 0.0 mm 0.0 W/m2 CLR
23:04 17.2 °C 6.7 °C 1020.9 hPa SW 14.8 km/h 14.8 km/h 50 % 0.0 mm 0.0 W/m2 CLR
23:09 17.2 °C 6.7 °C 1020.9 hPa SSW 18.5 km/h 18.5 km/h 50 % 0.0 mm 0.0 W/m2 CLR
23:14 17.2 °C 6.7 °C 1020.9 hPa South 18.5 km/h 18.5 km/h 50 % 0.0 mm 0.0 W/m2 CLR
23:19 17.2 °C 6.7 °C 1020.9 hPa SSW 25.9 km/h 25.9 km/h 50 % 0.0 mm 0.0 W/m2 CLR
23:24 17.2 °C 6.7 °C 1020.5 hPa South 16.7 km/h 16.7 km/h 50 % 0.0 mm 0.0 W/m2 CLR
23:29 17.2 °C 6.7 °C 1020.9 hPa South 24.1 km/h 24.1 km/h 50 % 0.0 mm 0.0 W/m2 CLR
23:34 17.2 °C 6.7 °C 1020.9 hPa South 25.7 km/h 25.7 km/h 50 % 0.0 mm 0.0 W/m2 CLR
23:39 17.2 °C 6.7 °C 1020.9 hPa South 18.5 km/h 18.5 km/h 50 % 0.0 mm 0.0 W/m2 CLR
23:44 17.2 °C 6.7 °C 1020.9 hPa SSW 18.5 km/h 18.5 km/h 50 % 0.0 mm 0.0 W/m2 CLR
23:49 17.2 °C 6.7 °C 1020.9 hPa South 14.8 km/h 14.8 km/h 50 % 0.0 mm 0.0 W/m2 CLR
23:54 16.7 °C 6.2 °C 1020.9 hPa SSW 18.5 km/h 18.5 km/h 50 % 0.0 mm 0.0 W/m2 CLR
23:59 16.7 °C 6.2 °C 1020.5 hPa SSW 5.6 km/h 5.6 km/h 50 % 0.0 mm 0.0 W/m2 CLR
Lo Temps de Massalio
Compliments of Weather Underground - 1.25 mb